Cape Flattery, Washington
Current Conditions -  °F | °C
As of 8:01 AM on Sunday 25 Jan 2015 (Local Time) from KUIL Reporting Station
Scattered Clouds Scattered Clouds  
Wind Chill: 47°   Ceiling: Unl
Heat Index: 49°   Visibility: 9mi
Dew Point: 49°   Wind: 5mph
Humidity: 100%   Direction: 100°E
Pressure: 30.13"   Gusts: NA
Location:  48.3685°N, 124.623°W
Report Text: KUIL 251601Z AUTO 10004KT 9SM SCT013 09/09 A3013 RMK AO2 T00940094
Loading
Personal Weather Stations






























Interactive Weather Map New forecast layout! Learn more

10-Day Weather Forecast

Advertisements
Track Severe Weather on mobile